createdAt,value
2023-02-11T00:01:39.030Z,94190.53
2023-02-11T00:04:08.617Z,94191.19
2023-02-11T00:06:37.784Z,94183.59
2023-02-11T00:09:07.636Z,94174.66
2023-02-11T00:11:36.134Z,94175.00
2023-02-11T00:14:08.855Z,94168.56
2023-02-11T00:19:26.332Z,94163.53
2023-02-11T00:21:54.787Z,94159.72
2023-02-11T00:24:23.230Z,94162.44
2023-02-11T00:26:51.674Z,94162.00
2023-02-11T00:29:21.494Z,94166.97
2023-02-11T00:31:50.199Z,94168.16
2023-02-11T00:34:18.958Z,94172.38
2023-02-11T00:36:47.460Z,94171.97
2023-02-11T00:39:15.919Z,94168.41
2023-02-11T00:41:44.374Z,94168.41
2023-02-11T00:44:12.810Z,94173.63
2023-02-11T00:46:42.783Z,94173.81
2023-02-11T00:49:11.327Z,94172.28
2023-02-11T00:51:40.071Z,94170.44
2023-02-11T00:54:08.594Z,94168.59
2023-02-11T00:56:37.470Z,94171.28
2023-02-11T00:59:05.952Z,94159.91
2023-02-11T01:01:35.710Z,94164.75
2023-02-11T01:04:06.036Z,94166.22
2023-02-11T01:06:34.530Z,94157.53
2023-02-11T01:09:02.978Z,94160.22
2023-02-11T01:11:32.489Z,94160.66
2023-02-11T01:14:01.104Z,94162.59
2023-02-11T01:16:29.659Z,94174.34
2023-02-11T01:18:59.141Z,94189.66
2023-02-11T01:21:29.076Z,94183.84
2023-02-11T01:23:57.747Z,94191.56
2023-02-11T01:26:26.235Z,94190.59
2023-02-11T01:28:54.902Z,94191.03
2023-02-11T01:31:23.441Z,94189.47
2023-02-11T01:33:51.931Z,94182.88
2023-02-11T01:36:20.452Z,94178.72
2023-02-11T01:38:50.290Z,94180.44
2023-02-11T01:41:19.146Z,94169.88
2023-02-11T01:43:51.159Z,94168.34
2023-02-11T01:46:31.314Z,94163.53
2023-02-11T01:49:05.343Z,94175.72
2023-02-11T01:51:40.500Z,94166.97
2023-02-11T01:54:31.771Z,94163.16
2023-02-11T01:57:19.542Z,94166.31
2023-02-11T01:59:57.561Z,94161.09
2023-02-11T02:02:34.361Z,94154.66
2023-02-11T02:05:10.591Z,94147.25
2023-02-11T02:07:47.287Z,94147.16
2023-02-11T02:10:24.598Z,94147.81
2023-02-11T02:12:53.317Z,94144.50
2023-02-11T02:15:41.009Z,94145.03
2023-02-11T02:18:27.258Z,94133.53
2023-02-11T02:21:55.392Z,94136.72
2023-02-11T02:24:58.142Z,94135.06
2023-02-11T02:27:41.639Z,94128.03
2023-02-11T02:31:05.805Z,94124.53
2023-02-11T02:33:44.402Z,94126.91
2023-02-11T02:36:20.839Z,94132.16
2023-02-11T02:38:55.786Z,94114.84
2023-02-11T02:41:29.289Z,94114.44
2023-02-11T02:43:58.148Z,94122.34
2023-02-11T02:46:30.201Z,94112.75
2023-02-11T02:49:01.539Z,94103.84
2023-02-11T02:51:54.378Z,94106.16
2023-02-11T02:55:04.820Z,94097.28
2023-02-11T02:57:42.109Z,94099.50
2023-02-11T03:00:23.810Z,94096.53
2023-02-11T03:03:15.706Z,94094.53
2023-02-11T03:05:54.854Z,94092.63
2023-02-11T03:08:31.931Z,94092.78
2023-02-11T03:11:02.208Z,94097.25
2023-02-11T03:13:34.402Z,94099.09
2023-02-11T03:16:09.979Z,94104.78
2023-02-11T03:18:44.041Z,94089.97
2023-02-11T03:21:15.168Z,94090.69
2023-02-11T03:23:51.214Z,94095.44
2023-02-11T03:26:26.502Z,94082.56
2023-02-11T03:29:03.741Z,94073.16
2023-02-11T03:31:38.879Z,94083.91
2023-02-11T03:34:12.953Z,94084.13
2023-02-11T03:36:47.416Z,94065.13
2023-02-11T03:39:21.386Z,94062.94
2023-02-11T03:41:51.303Z,94059.22
2023-02-11T03:44:22.281Z,94061.13
2023-02-11T03:46:53.864Z,94066.69
2023-02-11T03:49:24.653Z,94067.66
2023-02-11T03:51:55.633Z,94072.34
2023-02-11T03:54:30.897Z,94065.16
2023-02-11T03:57:02.203Z,94069.59
2023-02-11T03:59:31.356Z,94069.00
2023-02-11T04:02:00.466Z,94066.13
2023-02-11T04:04:29.088Z,94066.03
2023-02-11T04:06:59.198Z,94068.19
2023-02-11T04:09:27.719Z,94063.25
2023-02-11T04:11:56.238Z,94069.59
2023-02-11T04:14:24.770Z,94070.75
2023-02-11T04:16:53.245Z,94070.00
2023-02-11T04:19:21.704Z,94072.53
2023-02-11T04:21:50.162Z,94066.13
2023-02-11T04:24:20.223Z,94065.31
2023-02-11T04:26:48.745Z,94068.91
2023-02-11T04:29:17.274Z,94078.16
2023-02-11T04:31:45.831Z,94075.16
2023-02-11T04:34:14.764Z,94080.13
2023-02-11T04:36:43.526Z,94089.13
2023-02-11T04:39:12.006Z,94087.84
2023-02-11T04:41:41.838Z,94093.78
2023-02-11T04:44:10.931Z,94098.72
2023-02-11T04:46:39.533Z,94115.59
2023-02-11T04:49:08.041Z,94115.91
2023-02-11T04:51:36.510Z,94119.25
2023-02-11T04:54:05.430Z,94119.56
2023-02-11T04:56:34.361Z,94114.03
2023-02-11T04:59:05.050Z,94116.22
2023-02-11T05:01:34.335Z,94106.94
2023-02-11T05:04:02.909Z,94111.19
2023-02-11T05:06:31.462Z,94118.59
2023-02-11T05:09:00.238Z,94120.66
2023-02-11T05:11:28.725Z,94124.59
2023-02-11T05:13:57.195Z,94125.34
2023-02-11T05:16:27.041Z,94130.25
2023-02-11T05:18:55.907Z,94130.03
2023-02-11T05:21:25.534Z,94130.03
2023-02-11T05:23:54.039Z,94124.50
2023-02-11T05:26:22.559Z,94113.56
2023-02-11T05:28:51.442Z,94103.94
2023-02-11T05:31:20.238Z,94095.91
2023-02-11T05:33:50.090Z,94089.09
2023-02-11T05:36:18.939Z,94094.25
2023-02-11T05:38:48.525Z,94094.97
2023-02-11T05:41:17.206Z,94094.97
2023-02-11T05:43:45.938Z,94086.31
2023-02-11T05:46:14.412Z,94082.75
2023-02-11T05:48:43.107Z,94091.25
2023-02-11T05:51:13.170Z,94080.88
2023-02-11T05:53:41.647Z,94089.94
2023-02-11T05:56:10.565Z,94087.75
2023-02-11T05:58:40.108Z,94091.00
2023-02-11T06:01:08.653Z,94092.94
2023-02-11T06:03:37.228Z,94110.75
2023-02-11T06:06:06.906Z,94113.47
2023-02-11T06:08:39.113Z,94114.31
2023-02-11T06:11:07.833Z,94109.22
2023-02-11T06:13:36.799Z,94097.59
2023-02-11T06:16:06.282Z,94097.03
2023-02-11T06:18:34.766Z,94103.84
2023-02-11T06:21:03.325Z,94101.72
2023-02-11T06:23:32.057Z,94093.75
2023-02-11T06:26:06.298Z,94088.91
2023-02-11T06:28:36.262Z,94082.78
2023-02-11T06:31:07.915Z,94073.69
2023-02-11T06:33:37.053Z,94072.19
2023-02-11T06:36:12.117Z,94065.53
2023-02-11T06:38:40.646Z,94066.47
2023-02-11T06:41:12.561Z,94060.69
2023-02-11T06:43:42.007Z,94052.31
2023-02-11T06:46:10.647Z,94053.75
2023-02-11T06:48:39.616Z,94040.94
2023-02-11T06:51:11.387Z,94031.78
2023-02-11T06:53:43.795Z,94018.47
2023-02-11T06:56:16.859Z,94018.09
2023-02-11T06:58:45.410Z,94021.66
2023-02-11T07:01:16.686Z,94028.84
2023-02-11T07:03:47.171Z,94033.91
2023-02-11T07:06:18.890Z,94040.22
2023-02-11T07:08:49.135Z,94047.94
2023-02-11T07:11:21.704Z,94051.09
2023-02-11T07:13:50.534Z,94045.22
2023-02-11T07:16:21.524Z,94033.16
2023-02-11T07:18:50.905Z,94034.88
2023-02-11T07:21:21.904Z,94037.69
2023-02-11T07:23:50.903Z,94041.00
2023-02-11T07:26:23.829Z,94038.19
2023-02-11T07:28:52.662Z,94047.16
2023-02-11T07:31:24.269Z,94040.81
2023-02-11T07:33:55.007Z,94046.94
2023-02-11T07:36:24.442Z,94053.47
2023-02-11T07:38:53.182Z,94056.91
2023-02-11T07:41:24.704Z,94058.28
2023-02-11T07:43:53.273Z,94067.25
2023-02-11T07:46:24.244Z,94084.66
2023-02-11T07:48:53.653Z,94083.66
2023-02-11T07:51:24.782Z,94087.38
2023-02-11T07:53:55.663Z,94082.63
2023-02-11T07:56:25.882Z,94077.13
2023-02-11T07:58:54.771Z,94075.53
2023-02-11T08:01:28.347Z,94071.84
2023-02-11T08:03:58.240Z,94071.81
2023-02-11T08:06:29.746Z,94072.09
2023-02-11T08:08:58.303Z,94075.00
2023-02-11T08:11:30.217Z,94067.38
2023-02-11T08:13:59.148Z,94071.03
2023-02-11T08:16:29.829Z,94083.69
2023-02-11T08:19:01.330Z,94088.97
2023-02-11T08:21:30.529Z,94086.81
2023-02-11T08:23:59.336Z,94076.78
2023-02-11T08:26:32.013Z,94076.25
2023-02-11T08:29:00.617Z,94063.84
2023-02-11T08:31:33.390Z,94063.56
2023-02-11T08:34:02.520Z,94056.66
2023-02-11T08:36:33.059Z,94063.53
2023-02-11T08:39:18.067Z,94059.25
2023-02-11T08:41:50.125Z,94057.59
2023-02-11T08:44:19.755Z,94071.88
2023-02-11T08:46:49.336Z,94063.97
2023-02-11T08:49:17.955Z,94057.16
2023-02-11T08:51:47.734Z,94069.00
2023-02-11T08:54:16.855Z,94066.56
2023-02-11T08:56:45.639Z,94064.94
2023-02-11T08:59:17.914Z,94074.88
2023-02-11T09:01:47.546Z,94073.72
2023-02-11T09:04:16.202Z,94068.66
2023-02-11T09:06:44.768Z,94079.00
2023-02-11T09:09:15.412Z,94081.63
2023-02-11T09:11:46.729Z,94086.00
2023-02-11T09:14:22.577Z,94089.19
2023-02-11T09:16:51.981Z,94089.72
2023-02-11T09:19:21.427Z,94084.97
2023-02-11T09:21:50.661Z,94076.72
2023-02-11T09:24:19.614Z,94069.31
2023-02-11T09:26:49.659Z,94070.66
2023-02-11T09:29:19.798Z,94062.94
2023-02-11T09:31:48.577Z,94067.38
2023-02-11T09:34:17.359Z,94068.34
2023-02-11T09:36:46.046Z,94069.38
2023-02-11T09:39:18.517Z,94068.44
2023-02-11T09:42:35.929Z,94068.00
2023-02-11T09:45:16.136Z,94074.13
2023-02-11T09:47:51.800Z,94071.13
2023-02-11T09:50:25.743Z,94072.94
2023-02-11T09:53:00.526Z,94068.41
2023-02-11T09:55:31.776Z,94068.06
2023-02-11T09:58:00.755Z,94069.16
2023-02-11T10:00:38.880Z,94079.22
2023-02-11T10:03:43.712Z,94076.34
2023-02-11T10:06:28.532Z,94087.16
2023-02-11T10:09:17.896Z,94085.03
2023-02-11T10:11:58.240Z,94083.31
2023-02-11T10:14:50.376Z,94079.34
2023-02-11T10:17:36.223Z,94091.09
2023-02-11T10:20:19.928Z,94085.13
2023-02-11T10:22:52.182Z,94081.50
2023-02-11T10:25:25.230Z,94076.44
2023-02-11T10:27:56.669Z,94074.22
2023-02-11T10:30:30.969Z,94067.25
2023-02-11T10:33:06.015Z,94071.97
2023-02-11T10:35:34.708Z,94069.44
2023-02-11T10:38:03.555Z,94064.00
2023-02-11T10:40:33.903Z,94064.13
2023-02-11T10:43:07.584Z,94056.13
2023-02-11T10:45:40.544Z,94055.56
2023-02-11T10:48:42.755Z,94057.84
2023-02-11T10:51:21.056Z,94053.41
2023-02-11T10:53:52.181Z,94052.03
2023-02-11T10:56:28.278Z,94048.44
2023-02-11T10:59:02.721Z,94053.31
2023-02-11T11:01:43.759Z,94059.44
2023-02-11T11:04:41.484Z,94047.63
2023-02-11T11:07:21.486Z,94044.47
2023-02-11T11:09:54.268Z,94040.66
2023-02-11T11:12:36.474Z,94027.53
2023-02-11T11:15:19.982Z,94027.84
2023-02-11T11:17:49.038Z,94021.88
2023-02-11T11:20:25.107Z,94016.72
2023-02-11T11:23:10.707Z,94009.66
2023-02-11T11:25:42.956Z,94004.38
2023-02-11T11:28:23.892Z,93996.69
2023-02-11T11:30:55.417Z,93987.91
2023-02-11T11:33:27.531Z,94000.13
2023-02-11T11:36:05.348Z,93992.59
2023-02-11T11:38:37.155Z,93991.03
2023-02-11T11:41:17.958Z,93991.31
2023-02-11T11:44:04.206Z,93983.03
2023-02-11T11:46:36.672Z,93992.16
2023-02-11T11:49:18.665Z,93983.88
2023-02-11T11:51:58.016Z,93985.66
2023-02-11T11:54:29.309Z,93979.59
2023-02-11T11:57:04.079Z,93981.06
2023-02-11T11:59:33.358Z,93985.78
2023-02-11T12:02:35.630Z,93973.34
2023-02-11T12:05:10.895Z,93973.69
2023-02-11T12:08:02.115Z,93965.97
2023-02-11T12:10:45.726Z,93964.41
2023-02-11T12:13:30.749Z,93957.66
2023-02-11T12:16:11.820Z,93961.59
2023-02-11T12:19:11.308Z,93961.81
2023-02-11T12:21:52.646Z,93960.94
2023-02-11T12:24:44.117Z,93963.47
2023-02-11T12:27:21.445Z,93956.31
2023-02-11T12:30:03.702Z,93953.88
2023-02-11T12:32:41.967Z,93947.16
2023-02-11T12:35:41.011Z,93956.28
2023-02-11T12:38:36.902Z,93955.03
2023-02-11T12:41:47.177Z,93955.97
2023-02-11T12:44:26.501Z,93955.09
2023-02-11T12:47:00.049Z,93953.03
2023-02-11T12:49:51.661Z,93951.97
2023-02-11T12:52:41.166Z,93944.31
2023-02-11T12:55:20.536Z,93949.88
2023-02-11T12:57:53.886Z,93949.13
2023-02-11T13:00:25.983Z,93947.72
2023-02-11T13:03:01.656Z,93937.97
2023-02-11T13:05:37.800Z,93944.91
2023-02-11T13:08:13.523Z,93936.13
2023-02-11T13:10:47.001Z,93941.59
2023-02-11T13:13:23.949Z,93943.63
2023-02-11T13:15:56.638Z,93941.91
2023-02-11T13:18:41.570Z,93944.25
2023-02-11T13:21:30.309Z,93941.28
2023-02-11T13:24:11.137Z,93937.56
2023-02-11T13:26:48.546Z,93933.88
2023-02-11T13:29:38.041Z,93937.78
2023-02-11T13:32:13.270Z,93936.78
2023-02-11T13:35:00.101Z,93942.38
2023-02-11T13:37:34.713Z,93944.44
2023-02-11T13:40:08.446Z,93937.88
2023-02-11T13:42:51.646Z,93940.97
2023-02-11T13:45:32.022Z,93939.34
2023-02-11T13:48:03.621Z,93935.31
2023-02-11T13:50:39.637Z,93936.03
2023-02-11T13:53:09.412Z,93943.06
2023-02-11T13:55:46.489Z,93932.13
2023-02-11T13:58:37.566Z,93927.59
2023-02-11T14:01:08.768Z,93930.03
2023-02-11T14:03:58.196Z,93925.81
2023-02-11T14:07:01.794Z,93921.06
2023-02-11T14:09:41.434Z,93918.59
2023-02-11T14:12:36.930Z,93921.97
2023-02-11T14:15:28.590Z,93921.22
2023-02-11T14:17:58.708Z,93918.75
2023-02-11T14:20:47.244Z,93913.59
2023-02-11T14:23:33.700Z,93920.88
2023-02-11T14:26:30.460Z,93918.47
2023-02-11T14:29:08.217Z,93903.63
2023-02-11T14:31:44.100Z,93900.41
2023-02-11T14:34:44.935Z,93905.28
2023-02-11T14:37:27.038Z,93902.38
2023-02-11T14:40:16.040Z,93902.91
2023-02-11T14:42:45.218Z,93903.13
2023-02-11T14:45:21.614Z,93910.19
2023-02-11T14:47:55.180Z,93911.78
2023-02-11T14:50:29.923Z,93912.66
2023-02-11T14:53:02.724Z,93916.28
2023-02-11T14:55:35.771Z,93921.75
2023-02-11T14:58:13.243Z,93924.44
2023-02-11T15:00:51.599Z,93926.75
2023-02-11T15:03:34.414Z,93934.91
2023-02-11T15:06:08.460Z,93932.69
2023-02-11T15:08:39.437Z,93927.13
2023-02-11T15:11:14.025Z,93926.88
2023-02-11T15:13:47.468Z,93922.41
2023-02-11T15:16:19.832Z,93935.09
2023-02-11T15:18:53.567Z,93930.81
2023-02-11T15:21:26.252Z,93930.97
2023-02-11T15:24:02.537Z,93935.06
2023-02-11T15:26:32.128Z,93950.91
2023-02-11T15:29:01.071Z,93944.69
2023-02-11T15:31:33.813Z,93946.28
2023-02-11T15:34:09.633Z,93952.75
2023-02-11T15:36:39.901Z,93951.56
2023-02-11T15:39:29.479Z,93952.72
2023-02-11T15:41:58.042Z,93952.00
2023-02-11T15:47:22.655Z,93950.06
2023-02-11T15:49:51.444Z,93960.06
2023-02-11T15:52:28.156Z,93953.56
2023-02-11T15:55:00.760Z,93962.06
2023-02-11T15:57:29.775Z,93953.28
2023-02-11T16:00:04.401Z,93959.28
2023-02-11T16:02:36.586Z,93953.44
2023-02-11T16:05:09.020Z,93967.13
2023-02-11T16:07:47.993Z,93963.03
2023-02-11T16:10:24.002Z,93964.00
2023-02-11T16:12:54.865Z,93970.22
2023-02-11T16:15:46.928Z,93960.63
2023-02-11T16:18:39.888Z,93972.53
2023-02-11T16:21:17.672Z,93971.94
2023-02-11T16:23:54.390Z,93970.41
2023-02-11T16:26:28.888Z,93978.75
2023-02-11T16:29:09.580Z,93979.63
2023-02-11T16:31:40.576Z,93989.53
2023-02-11T16:34:17.736Z,93990.38
2023-02-11T16:36:47.148Z,94002.66
2023-02-11T16:39:18.403Z,94005.44
2023-02-11T16:41:47.192Z,94004.28
2023-02-11T16:44:15.674Z,94006.44
2023-02-11T16:46:44.395Z,94011.03
2023-02-11T16:49:19.671Z,94011.53
2023-02-11T16:51:51.710Z,94016.75
2023-02-11T16:54:21.807Z,94013.81
2023-02-11T16:56:50.799Z,94019.22
2023-02-11T16:59:19.375Z,94020.78
2023-02-11T17:01:49.735Z,94021.47
2023-02-11T17:04:21.957Z,94022.97
2023-02-11T17:06:51.544Z,94018.41
2023-02-11T17:09:24.796Z,94029.50
2023-02-11T17:11:53.575Z,94036.16
2023-02-11T17:14:22.243Z,94037.75
2023-02-11T17:16:50.780Z,94041.44
2023-02-11T17:19:22.103Z,94037.16
2023-02-11T17:21:53.333Z,94035.25
2023-02-11T17:24:24.548Z,94036.66
2023-02-11T17:26:53.267Z,94039.72
2023-02-11T17:29:24.370Z,94046.50
2023-02-11T17:31:54.720Z,94043.56
2023-02-11T17:34:24.311Z,94038.03
2023-02-11T17:36:53.563Z,94047.69
2023-02-11T17:39:24.104Z,94051.78
2023-02-11T17:41:52.674Z,94054.22
2023-02-11T17:44:21.146Z,94053.25
2023-02-11T17:46:49.832Z,94057.28
2023-02-11T17:49:18.593Z,94057.34
2023-02-11T17:51:47.821Z,94063.25
2023-02-11T17:54:18.806Z,94063.81
2023-02-11T17:56:50.973Z,94062.03
2023-02-11T17:59:20.520Z,94060.72
2023-02-11T18:01:49.429Z,94064.03
2023-02-11T18:04:20.911Z,94063.50
2023-02-11T18:06:50.405Z,94073.25
2023-02-11T18:09:18.940Z,94074.25
2023-02-11T18:11:50.842Z,94084.78
2023-02-11T18:14:19.916Z,94086.44
2023-02-11T18:16:51.569Z,94088.28
2023-02-11T18:19:21.303Z,94087.22
2023-02-11T18:21:51.048Z,94089.97
2023-02-11T18:24:19.946Z,94088.50
2023-02-11T18:26:49.817Z,94097.22
2023-02-11T18:29:18.305Z,94088.75
2023-02-11T18:31:46.806Z,94088.25
2023-02-11T18:34:37.191Z,94083.63
2023-02-11T18:37:05.877Z,94091.31
2023-02-11T18:39:34.430Z,94092.88
2023-02-11T18:42:04.321Z,94100.09
2023-02-11T18:44:32.852Z,94103.84
2023-02-11T18:47:01.474Z,94109.00
2023-02-11T18:49:30.254Z,94100.63
2023-02-11T18:51:59.490Z,94105.69
2023-02-11T18:54:28.232Z,94110.69
2023-02-11T18:56:56.769Z,94122.47
2023-02-11T18:59:26.751Z,94113.53
2023-02-11T19:01:55.244Z,94121.41
2023-02-11T19:04:23.985Z,94128.50
2023-02-11T19:06:52.756Z,94121.53
2023-02-11T19:09:22.559Z,94123.03
2023-02-11T19:11:51.353Z,94126.16
2023-02-11T19:14:24.099Z,94120.47
2023-02-11T19:16:57.353Z,94118.75
2023-02-11T19:19:28.718Z,94125.28
2023-02-11T19:21:58.884Z,94119.22
2023-02-11T19:24:29.564Z,94129.97
2023-02-11T19:27:01.313Z,94127.44
2023-02-11T19:29:32.546Z,94125.59
2023-02-11T19:32:03.047Z,94131.75
2023-02-11T19:34:31.822Z,94127.19
2023-02-11T19:37:01.774Z,94129.31
2023-02-11T19:39:30.540Z,94131.63
2023-02-11T19:41:59.067Z,94133.94
2023-02-11T19:44:27.536Z,94137.66
2023-02-11T19:46:56.308Z,94141.31
2023-02-11T19:49:26.584Z,94143.19
2023-02-11T19:51:58.399Z,94144.06
2023-02-11T19:54:29.367Z,94136.28
2023-02-11T19:56:59.069Z,94129.38
2023-02-11T19:59:27.886Z,94130.38
2023-02-11T20:01:57.706Z,94125.59
2023-02-11T20:04:27.579Z,94125.09
2023-02-11T20:06:56.089Z,94124.06
2023-02-11T20:09:24.627Z,94120.38
2023-02-11T20:11:53.305Z,94129.13
2023-02-11T20:14:21.949Z,94125.66
2023-02-11T20:16:50.679Z,94118.31
2023-02-11T20:19:21.684Z,94106.13
2023-02-11T20:21:55.813Z,94107.19
2023-02-11T20:24:25.916Z,94113.53
2023-02-11T20:26:56.054Z,94115.66
2023-02-11T20:29:26.293Z,94118.59
2023-02-11T20:31:55.697Z,94132.06
2023-02-11T20:34:25.407Z,94116.78
2023-02-11T20:36:56.057Z,94115.72
2023-02-11T20:39:27.096Z,94103.13
2023-02-11T20:41:56.630Z,94112.59
2023-02-11T20:44:25.567Z,94102.50
2023-02-11T20:46:55.640Z,94110.44
2023-02-11T20:49:27.237Z,94107.75
2023-02-11T20:51:58.748Z,94127.13
2023-02-11T20:54:27.836Z,94122.66
2023-02-11T20:56:58.219Z,94122.72
2023-02-11T20:59:27.776Z,94120.56
2023-02-11T21:01:58.057Z,94123.25
2023-02-11T21:04:30.549Z,94126.13
2023-02-11T21:07:02.474Z,94127.09
2023-02-11T21:09:34.623Z,94125.31
2023-02-11T21:12:03.955Z,94131.66
2023-02-11T21:14:32.496Z,94138.56
2023-02-11T21:17:00.972Z,94133.84
2023-02-11T21:19:29.755Z,94131.97
2023-02-11T21:22:01.252Z,94133.31
2023-02-11T21:24:30.953Z,94124.06
2023-02-11T21:26:59.583Z,94136.47
2023-02-11T21:29:28.109Z,94133.03
2023-02-11T21:31:57.584Z,94137.00
2023-02-11T21:34:26.124Z,94137.56
2023-02-11T21:36:54.707Z,94140.19
2023-02-11T21:39:24.822Z,94137.31
2023-02-11T21:41:53.672Z,94134.09
2023-02-11T21:44:22.215Z,94138.09
2023-02-11T21:46:50.789Z,94130.66
2023-02-11T21:49:20.491Z,94149.44
2023-02-11T21:51:49.189Z,94143.38
2023-02-11T21:54:18.839Z,94145.47
2023-02-11T21:56:52.795Z,94149.19
2023-02-11T21:59:21.361Z,94140.47
2023-02-11T22:01:50.392Z,94143.91
2023-02-11T22:04:18.943Z,94148.94
2023-02-11T22:06:47.451Z,94148.66
2023-02-11T22:09:15.934Z,94138.06
2023-02-11T22:11:44.446Z,94143.38
2023-02-11T22:14:14.290Z,94144.69
2023-02-11T22:16:43.036Z,94141.81
2023-02-11T22:19:11.724Z,94145.50
2023-02-11T22:21:40.428Z,94136.44
2023-02-11T22:24:09.175Z,94143.91
2023-02-11T22:26:38.374Z,94141.78
2023-02-11T22:29:06.854Z,94151.81
2023-02-11T22:31:37.293Z,94147.34
2023-02-11T22:34:07.316Z,94146.53
2023-02-11T22:36:38.802Z,94147.59
2023-02-11T22:39:10.707Z,94145.47
2023-02-11T22:41:39.795Z,94149.94
2023-02-11T22:44:08.832Z,94154.41
2023-02-11T22:46:40.190Z,94153.69
2023-02-11T22:49:09.431Z,94155.00
2023-02-11T22:51:38.154Z,94154.19
2023-02-11T22:54:13.789Z,94150.78
2023-02-11T22:56:42.823Z,94153.41
2023-02-11T22:59:14.602Z,94159.75
2023-02-11T23:01:45.634Z,94168.22
2023-02-11T23:04:17.188Z,94165.28
2023-02-11T23:06:47.550Z,94163.91
2023-02-11T23:09:16.144Z,94171.88
2023-02-11T23:11:44.682Z,94172.38
2023-02-11T23:14:13.393Z,94173.41
2023-02-11T23:16:43.413Z,94166.78
2023-02-11T23:19:13.232Z,94168.38
2023-02-11T23:21:41.769Z,94174.19
2023-02-11T23:24:14.991Z,94167.06
2023-02-11T23:26:47.572Z,94167.06
2023-02-11T23:29:16.283Z,94168.38
2023-02-11T23:31:47.398Z,94168.03
2023-02-11T23:34:17.300Z,94166.50
2023-02-11T23:36:46.090Z,94164.41
2023-02-11T23:39:17.236Z,94162.56
2023-02-11T23:41:47.562Z,94153.03
2023-02-11T23:44:16.125Z,94163.34
2023-02-11T23:46:46.037Z,94152.75
2023-02-11T23:49:15.824Z,94147.13
2023-02-11T23:51:44.348Z,94147.91
2023-02-11T23:54:15.302Z,94150.06
2023-02-11T23:56:44.038Z,94149.78
2023-02-11T23:59:12.830Z,94143.47
